Time;durP1;ratioP1;P1;durP2;ratioP2;P2;SDS_P1;SDS_P2;PMS_P1;PMS_P2;Temp;Humidity;BMP_temperature;BMP_pressure;BME280_temperature;BME280_humidity;BME280_pressure;Samples;Min_cycle;Max_cycle;Signal;HPM_P1;HPM_P2
2022/10/10 00:01:49;;;;;;;6.35;1.87;;;;;;;11.45;70.47;101155.25;1662107;86;21078;-73
2022/10/10 00:04:16;;;;;;;7.08;1.70;;;;;;;11.43;70.50;101158.69;1672400;83;21129;-73
2022/10/10 00:06:42;;;;;;;4.40;1.55;;;;;;;11.43;70.46;101163.23;1677208;83;21014;-73
2022/10/10 00:09:10;;;;;;;3.98;1.50;;;;;;;11.43;70.47;101162.70;1662081;86;21106;-73
2022/10/10 00:11:38;;;;;;;3.13;1.70;;;;;;;11.40;70.54;101155.70;1670737;83;22280;-72
2022/10/10 00:14:06;;;;;;;4.50;1.70;;;;;;;11.37;70.53;101161.01;1674954;83;22403;-75
2022/10/10 00:16:34;;;;;;;4.33;1.57;;;;;;;11.35;70.58;101160.47;1661778;85;21097;-73
2022/10/10 00:19:01;;;;;;;5.70;1.80;;;;;;;11.33;70.63;101159.09;1661993;86;21803;-74
2022/10/10 00:21:29;;;;;;;4.90;2.25;;;;;;;11.29;70.70;101154.76;1686341;83;22152;-74
2022/10/10 00:23:56;;;;;;;6.05;1.60;;;;;;;11.28;70.72;101174.52;1686836;83;21597;-74
2022/10/10 00:26:23;;;;;;;4.33;1.60;;;;;;;11.26;70.72;101167.28;1689635;85;21121;-73
2022/10/10 00:28:51;;;;;;;3.35;1.40;;;;;;;11.23;70.77;101165.91;1668163;83;21845;-73
2022/10/10 00:31:17;;;;;;;5.17;1.65;;;;;;;11.21;70.81;101172.55;1673712;83;21664;-73
2022/10/10 00:33:46;;;;;;;3.62;1.22;;;;;;;11.19;70.84;101172.00;1671286;83;21006;-72
2022/10/10 00:36:13;;;;;;;3.72;1.40;;;;;;;11.16;70.88;101171.16;1680756;83;20995;-73
2022/10/10 00:38:40;;;;;;;3.70;1.50;;;;;;;11.12;71.00;101172.17;1664791;83;21035;-75
2022/10/10 00:41:07;;;;;;;4.40;1.85;;;;;;;11.10;71.05;101178.28;1675470;83;21164;-72
2022/10/10 00:43:34;;;;;;;4.20;1.65;;;;;;;11.08;71.15;101175.03;1662201;86;20968;-72
2022/10/10 00:46:00;;;;;;;3.08;1.50;;;;;;;11.05;71.19;101174.19;1672346;83;21466;-72
2022/10/10 00:48:35;;;;;;;4.08;1.90;;;;;;;11.02;71.25;101176.84;1667488;83;20963;-73
2022/10/10 00:51:13;;;;;;;4.97;1.92;;;;;;;10.99;71.29;101171.15;1670912;83;21081;-73
2022/10/10 00:53:50;;;;;;;4.08;1.57;;;;;;;10.96;71.35;101171.66;1669323;84;21120;-73
2022/10/10 00:56:21;;;;;;;3.85;1.67;;;;;;;10.96;71.39;101171.66;1685504;83;21086;-72
2022/10/10 00:58:51;;;;;;;4.78;1.98;;;;;;;10.94;71.37;101181.25;1667789;83;21063;-73
2022/10/10 01:01:24;;;;;;;4.08;1.70;;;;;;;10.94;71.40;101175.09;1679264;83;21075;-73
2022/10/10 01:03:48;;;;;;;7.33;1.55;;;;;;;10.91;71.43;101181.73;1682973;83;21094;-73
2022/10/10 01:06:14;;;;;;;5.00;1.60;;;;;;;10.90;71.46;101181.98;1682155;83;21633;-73
2022/10/10 01:08:43;;;;;;;3.98;1.55;;;;;;;10.89;71.49;101178.52;1668360;83;20943;-73
2022/10/10 01:11:33;;;;;;;5.42;1.80;;;;;;;10.87;71.49;101184.62;1689551;84;21071;-73
2022/10/10 01:14:22;;;;;;;4.62;1.67;;;;;;;10.83;71.50;101186.16;1686329;85;21036;-73
2022/10/10 01:17:06;;;;;;;3.98;1.75;;;;;;;10.79;71.62;101189.85;1682882;83;20939;-73
2022/10/10 01:20:06;;;;;;;5.15;1.70;;;;;;;10.76;71.68;101197.55;1665804;83;21526;-73
2022/10/10 01:22:57;;;;;;;3.30;1.70;;;;;;;10.73;71.73;101196.69;1673208;83;21044;-73
2022/10/10 01:25:30;;;;;;;6.37;1.50;;;;;;;10.70;71.81;101195.83;1683627;83;21063;-73
2022/10/10 01:28:28;;;;;;;6.15;1.55;;;;;;;10.67;71.75;101193.11;1662114;85;21521;-72
2022/10/10 01:30:56;;;;;;;3.55;1.40;;;;;;;10.66;71.78;101191.50;1669009;85;20996;-72
2022/10/10 01:33:31;;;;;;;4.60;1.57;;;;;;;10.61;71.85;101198.61;1689389;85;21144;-73
2022/10/10 01:36:21;;;;;;;5.03;1.45;;;;;;;10.59;71.92;101196.70;1670272;83;21026;-73
2022/10/10 01:39:15;;;;;;;3.77;1.30;;;;;;;10.59;71.98;101203.37;1661695;86;20943;-73
2022/10/10 01:41:47;;;;;;;3.15;1.50;;;;;;;10.56;71.99;101193.47;1686998;83;21533;-73
2022/10/10 01:44:13;;;;;;;3.47;1.65;;;;;;;10.55;72.01;101199.05;1679991;83;21014;-73
2022/10/10 01:46:41;;;;;;;4.15;1.40;;;;;;;10.53;72.03;101196.63;1653717;85;21093;-73
2022/10/10 01:49:07;;;;;;;4.87;1.50;;;;;;;10.53;72.02;101207.84;1687445;83;21004;-73
2022/10/10 01:52:04;;;;;;;5.03;1.65;;;;;;;10.51;71.99;101208.06;1684011;83;21118;-72
2022/10/10 01:54:53;;;;;;;4.75;1.47;;;;;;;10.51;72.00;101216.08;1670058;85;20991;-73
2022/10/10 01:57:45;;;;;;;3.40;1.40;;;;;;;10.50;71.99;101219.00;1663773;83;21046;-73
2022/10/10 02:00:13;;;;;;;6.45;2.10;;;;;;;10.49;71.99;101218.70;1668021;84;21181;-73
2022/10/10 02:03:08;;;;;;;4.00;1.42;;;;;;;10.47;71.92;101221.62;1687595;83;21066;-72
2022/10/10 02:05:56;;;;;;;4.03;1.50;;;;;;;10.45;71.90;101226.37;1666682;83;21102;-73
2022/10/10 02:08:38;;;;;;;4.03;1.30;;;;;;;10.44;71.89;101218.09;1667922;83;21066;-73
2022/10/10 02:11:10;;;;;;;3.58;1.50;;;;;;;10.41;71.86;101229.78;1670719;83;20955;-73
2022/10/10 02:13:53;;;;;;;5.87;1.62;;;;;;;10.39;71.89;101234.53;1688595;85;21116;-73
2022/10/10 02:16:31;;;;;;;4.53;1.50;;;;;;;10.37;71.88;101233.98;1688136;85;21011;-73
2022/10/10 02:18:58;;;;;;;4.08;1.60;;;;;;;10.32;71.92;101236.82;1687459;85;21114;-73
2022/10/10 02:21:25;;;;;;;5.95;1.47;;;;;;;10.30;71.91;101236.27;1660894;83;21129;-72
2022/10/10 02:23:54;;;;;;;4.00;1.77;;;;;;;10.29;71.97;101236.48;1667846;83;21125;-73
2022/10/10 02:26:21;;;;;;;4.40;1.50;;;;;;;10.27;72.00;101239.94;1666322;84;21222;-73
2022/10/10 02:28:56;;;;;;;5.80;1.80;;;;;;;10.25;72.08;101241.47;1687705;83;20968;-73
2022/10/10 02:31:55;;;;;;;3.85;1.60;;;;;;;10.23;72.08;101248.09;1687978;83;21648;-73
2022/10/10 02:34:26;;;;;;;5.20;1.57;;;;;;;10.22;72.11;101247.81;1677515;83;21071;-73
2022/10/10 02:36:57;;;;;;;5.65;1.70;;;;;;;10.20;72.13;101240.55;1664195;83;21533;-73
2022/10/10 02:39:29;;;;;;;6.33;2.17;;;;;;;10.19;72.16;101245.61;1677939;83;21283;-73
2022/10/10 02:41:56;;;;;;;3.83;1.62;;;;;;;10.16;72.20;101244.75;1676392;83;21031;-74
2022/10/10 02:44:23;;;;;;;5.05;1.65;;;;;;;10.15;72.22;101257.29;1680009;84;20995;-73
2022/10/10 02:46:50;;;;;;;3.55;1.70;;;;;;;10.12;72.27;101251.61;1681965;83;21224;-73
2022/10/10 02:49:26;;;;;;;3.95;1.55;;;;;;;10.10;72.28;101253.17;1691427;82;20960;-73
2022/10/10 02:51:52;;;;;;;4.97;1.85;;;;;;;10.07;72.33;101259.01;1671811;83;21120;-73
2022/10/10 02:54:19;;;;;;;4.87;1.60;;;;;;;10.04;72.37;101250.14;1682161;83;21342;-74
2022/10/10 02:56:46;;;;;;;5.53;1.75;;;;;;;10.02;72.45;101253.55;1694343;84;21099;-73
2022/10/10 02:59:12;;;;;;;5.05;1.70;;;;;;;10.01;72.44;101259.95;1661125;85;20959;-73
2022/10/10 03:01:40;;;;;;;4.95;1.50;;;;;;;9.98;72.45;101255.88;1660406;86;21019;-73
2022/10/10 03:04:06;;;;;;;4.03;1.60;;;;;;;9.96;72.47;101255.30;1667327;83;21151;-73
2022/10/10 03:06:33;;;;;;;5.55;2.00;;;;;;;9.95;72.48;101263.02;1668169;83;21019;-73
2022/10/10 03:09:00;;;;;;;4.45;1.77;;;;;;;9.94;72.50;101260.60;1664106;83;21106;-73
2022/10/10 03:11:27;;;;;;;4.08;1.47;;;;;;;9.89;72.54;101261.30;1664639;83;22207;-73
2022/10/10 03:13:53;;;;;;;5.55;1.90;;;;;;;9.86;72.56;101263.09;1687964;83;21047;-72
2022/10/10 03:16:20;;;;;;;3.58;1.67;;;;;;;9.85;72.56;101260.14;1670813;84;21149;-73
2022/10/10 03:18:47;;;;;;;4.00;1.62;;;;;;;9.84;72.58;101271.88;1663706;83;20978;-73
2022/10/10 03:21:14;;;;;;;5.70;1.90;;;;;;;9.81;72.57;101263.81;1661871;86;21125;-73
2022/10/10 03:23:41;;;;;;;7.80;1.98;;;;;;;9.78;72.64;101274.94;1684033;83;21027;-73
2022/10/10 03:26:08;;;;;;;2.87;1.60;;;;;;;9.76;72.66;101277.55;1663229;85;21058;-73
2022/10/10 03:28:37;;;;;;;5.58;1.90;;;;;;;9.75;72.68;101269.27;1663849;83;21415;-73
2022/10/10 03:31:04;;;;;;;2.72;1.42;;;;;;;9.74;72.68;101274.30;1673051;83;21038;-73
2022/10/10 03:33:31;;;;;;;3.72;1.62;;;;;;;9.71;72.71;101276.12;1682975;83;20991;-73
2022/10/10 03:35:57;;;;;;;4.08;1.70;;;;;;;9.69;72.70;101266.20;1661347;86;21034;-73
2022/10/10 03:38:24;;;;;;;4.00;1.80;;;;;;;9.68;72.69;101271.25;1661867;86;20975;-73
2022/10/10 03:40:50;;;;;;;6.67;1.95;;;;;;;9.67;72.72;101282.95;1665770;83;21150;-73
2022/10/10 03:43:18;;;;;;;5.15;1.80;;;;;;;9.65;72.77;101279.72;1675729;83;21023;-73
2022/10/10 03:45:46;;;;;;;4.22;1.70;;;;;;;9.62;72.78;101283.66;1681814;83;21098;-73
2022/10/10 03:48:13;;;;;;;4.33;1.85;;;;;;;9.59;72.84;101287.59;1662327;85;21062;-73
2022/10/10 03:50:40;;;;;;;5.20;2.10;;;;;;;9.58;72.91;101285.17;1663785;83;21058;-73
2022/10/10 03:53:06;;;;;;;4.22;1.82;;;;;;;9.57;72.95;101292.33;1672930;83;21138;-73
2022/10/10 03:55:33;;;;;;;6.05;1.90;;;;;;;9.53;73.05;101285.84;1676123;83;21047;-73
2022/10/10 03:58:00;;;;;;;4.55;1.85;;;;;;;9.51;73.10;101293.28;1690532;84;21098;-73
2022/10/10 04:00:26;;;;;;;5.12;2.12;;;;;;;9.50;73.16;101287.64;1686224;83;21030;-73
2022/10/10 04:02:54;;;;;;;3.85;1.80;;;;;;;9.50;73.19;101289.50;1678120;83;21046;-73
2022/10/10 04:05:20;;;;;;;5.05;2.00;;;;;;;9.49;73.19;101295.89;1690017;85;21586;-73
2022/10/10 04:07:48;;;;;;;4.28;2.10;;;;;;;9.47;73.20;101297.44;1689706;83;21038;-73
2022/10/10 04:10:15;;;;;;;4.70;1.80;;;;;;;9.46;73.23;101289.16;1681653;83;21146;-73
2022/10/10 04:12:41;;;;;;;4.33;1.87;;;;;;;9.45;73.27;101301.40;1689664;85;21497;-73
2022/10/10 04:15:09;;;;;;;4.30;1.60;;;;;;;9.45;73.33;101304.06;1689309;83;21644;-73
2022/10/10 04:17:37;;;;;;;5.45;1.98;;;;;;;9.44;73.33;101303.75;1689812;85;21047;-73
2022/10/10 04:20:04;;;;;;;3.72;1.75;;;;;;;9.44;73.31;101311.23;1669564;83;21058;-73
2022/10/10 04:22:31;;;;;;;5.72;1.75;;;;;;;9.43;73.30;101309.61;1687186;85;21007;-73
2022/10/10 04:24:58;;;;;;;3.83;1.72;;;;;;;9.44;73.27;101311.23;1687959;85;21008;-73
2022/10/10 04:27:24;;;;;;;3.62;1.70;;;;;;;9.44;73.26;101307.75;1689128;83;21113;-73
2022/10/10 04:29:51;;;;;;;4.60;1.95;;;;;;;9.43;73.27;101316.28;1679024;85;21107;-72
2022/10/10 04:32:18;;;;;;;5.65;1.90;;;;;;;9.42;73.27;101316.00;1687575;83;20947;-73
2022/10/10 04:34:44;;;;;;;2.98;1.62;;;;;;;9.44;73.27;101318.42;1672952;83;21050;-73
2022/10/10 04:37:11;;;;;;;4.53;1.60;;;;;;;9.45;73.28;101315.54;1676942;83;21019;-73
2022/10/10 04:39:38;;;;;;;4.62;2.00;;;;;;;9.42;73.34;101317.33;1679160;83;21114;-73
2022/10/10 04:42:07;;;;;;;7.92;2.50;;;;;;;9.44;73.32;101317.09;1679455;83;20960;-73
2022/10/10 04:44:33;;;;;;;5.15;1.98;;;;;;;9.46;73.30;101313.16;1661822;86;21050;-73
2022/10/10 04:46:59;;;;;;;4.22;2.12;;;;;;;9.46;73.24;101310.48;1679098;83;21003;-73
2022/10/10 04:49:26;;;;;;;4.90;1.70;;;;;;;9.49;73.26;101320.70;1679659;83;20979;-73
2022/10/10 04:51:52;;;;;;;5.97;2.25;;;;;;;9.51;73.24;101323.95;1687058;85;21082;-72
2022/10/10 04:54:19;;;;;;;4.22;1.85;;;;;;;9.54;73.27;101317.33;1678644;83;21743;-72
2022/10/10 04:56:46;;;;;;;5.10;2.12;;;;;;;9.57;73.23;101319.53;1666869;85;21019;-72
2022/10/10 04:59:13;;;;;;;5.03;2.30;;;;;;;9.61;73.18;101324.72;1674578;83;21073;-73
2022/10/10 05:01:39;;;;;;;6.15;2.25;;;;;;;9.62;73.06;101324.47;1679721;83;21006;-73
2022/10/10 05:04:06;;;;;;;5.55;2.40;;;;;;;9.66;73.00;101332.01;1687246;83;21106;-72
2022/10/10 05:06:32;;;;;;;6.67;2.35;;;;;;;9.69;72.88;101330.22;1685548;83;21113;-72
2022/10/10 05:08:59;;;;;;;7.10;2.25;;;;;;;9.73;72.84;101334.03;1688562;83;21011;-73
2022/10/10 05:11:26;;;;;;;4.83;2.70;;;;;;;9.75;72.68;101338.11;1690194;83;20975;-73
2022/10/10 05:13:53;;;;;;;6.67;2.10;;;;;;;9.80;72.64;101342.20;1680627;83;20998;-73
2022/10/10 05:16:21;;;;;;;4.40;2.37;;;;;;;9.82;72.57;101333.45;1685251;84;21527;-73
2022/10/10 05:18:47;;;;;;;5.03;2.15;;;;;;;9.88;72.51;101338.39;1678580;83;21226;-73
2022/10/10 05:21:14;;;;;;;6.67;2.40;;;;;;;9.93;72.40;101347.83;1675292;83;20960;-74
2022/10/10 05:23:41;;;;;;;6.80;2.30;;;;;;;9.97;72.22;101342.34;1686984;83;21050;-73
2022/10/10 05:26:07;;;;;;;6.75;2.17;;;;;;;9.99;72.04;101343.42;1687719;83;21510;-73
2022/10/10 05:28:35;;;;;;;6.25;2.20;;;;;;;10.02;71.81;101346.44;1663767;83;21098;-73
2022/10/10 05:31:03;;;;;;;4.90;2.10;;;;;;;10.07;71.77;101351.91;1684104;83;21142;-73
2022/10/10 05:33:33;;;;;;;4.60;1.95;;;;;;;10.13;71.65;101364.00;1685795;83;21430;-73
2022/10/10 05:36:09;;;;;;;4.65;1.60;;;;;;;10.18;71.54;101364.12;1692820;83;21069;-73
2022/10/10 05:38:38;;;;;;;3.70;1.98;;;;;;;10.21;71.36;101349.78;1670142;83;20955;-73
2022/10/10 05:41:07;;;;;;;6.75;2.30;;;;;;;10.25;71.26;101355.47;1683375;83;21478;-74
2022/10/10 05:43:34;;;;;;;4.72;1.80;;;;;;;10.31;71.21;101354.56;1689128;83;21097;-74
2022/10/10 05:46:02;;;;;;;5.20;2.00;;;;;;;10.38;71.01;101356.58;1686857;84;21015;-73
2022/10/10 05:48:29;;;;;;;6.03;2.08;;;;;;;10.44;70.96;101357.50;1686764;83;21157;-75
2022/10/10 05:50:57;;;;;;;6.47;2.08;;;;;;;10.48;70.86;101352.77;1669787;83;21104;-74
2022/10/10 05:53:25;;;;;;;4.75;2.08;;;;;;;10.54;70.70;101358.50;1687566;85;21036;-74
2022/10/10 05:55:52;;;;;;;5.10;1.60;;;;;;;10.60;70.65;101367.97;1689474;84;21792;-74
2022/10/10 05:58:18;;;;;;;3.40;1.65;;;;;;;10.64;70.41;101355.75;1688275;83;21063;-74
2022/10/10 06:00:46;;;;;;;5.90;1.90;;;;;;;10.68;70.30;101364.91;1685343;83;21059;-73
2022/10/10 06:03:15;;;;;;;3.87;1.70;;;;;;;10.74;70.25;101362.63;1665895;83;21482;-73
2022/10/10 06:05:43;;;;;;;3.58;1.82;;;;;;;10.78;70.04;101365.10;1661938;86;21180;-74
2022/10/10 06:08:11;;;;;;;4.33;1.80;;;;;;;10.80;69.62;101367.02;1681304;83;21127;-74
2022/10/10 06:10:40;;;;;;;5.67;1.70;;;;;;;10.82;69.58;101371.59;1667716;83;21434;-73
2022/10/10 06:13:08;;;;;;;5.17;1.80;;;;;;;10.86;69.54;101372.75;1680236;84;21128;-73
2022/10/10 06:15:36;;;;;;;4.87;2.17;;;;;;;10.91;69.41;101370.69;1687277;84;21094;-73
2022/10/10 06:18:04;;;;;;;4.20;1.70;;;;;;;10.96;69.26;101379.63;1682740;83;21074;-74
2022/10/10 06:20:39;;;;;;;6.40;1.85;;;;;;;11.03;69.25;101377.61;1454681;83;10000059;-79
2022/10/10 06:23:07;;;;;;;4.33;1.82;;;;;;;11.12;69.17;101376.70;1669646;85;21327;-78
2022/10/10 06:25:34;;;;;;;4.15;1.70;;;;;;;11.22;68.88;101383.56;1688686;83;21095;-74
2022/10/10 06:28:04;;;;;;;3.67;1.50;;;;;;;11.28;68.58;101371.08;1697900;83;21018;-73
2022/10/10 06:30:31;;;;;;;5.25;1.60;;;;;;;11.34;68.30;101375.47;1696688;83;21553;-73
2022/10/10 06:32:57;;;;;;;4.70;1.80;;;;;;;11.41;68.14;101376.64;1700970;83;21038;-72
2022/10/10 06:35:24;;;;;;;2.90;1.52;;;;;;;11.47;67.94;101379.16;1696383;83;21614;-74
2022/10/10 06:37:50;;;;;;;4.27;1.60;;;;;;;11.55;67.70;101382.48;1706782;83;21237;-72
2022/10/10 06:40:17;;;;;;;3.83;1.80;;;;;;;11.60;67.52;101379.91;1698510;83;21517;-73
2022/10/10 06:42:44;;;;;;;5.33;2.10;;;;;;;11.64;67.45;101389.86;1679956;83;21637;-72
2022/10/10 06:45:11;;;;;;;5.53;1.80;;;;;;;11.74;67.28;101386.53;1695133;83;21207;-74
2022/10/10 06:47:38;;;;;;;6.20;2.30;;;;;;;11.81;67.02;101377.81;1687038;83;21399;-73
2022/10/10 06:50:05;;;;;;;5.80;2.90;;;;;;;11.86;66.71;101391.84;1697505;83;21252;-80
2022/10/10 06:52:32;;;;;;;7.10;4.43;;;;;;;11.89;66.56;101385.47;1667322;83;21350;-78
2022/10/10 06:54:59;;;;;;;10.43;5.27;;;;;;;11.94;66.51;101382.88;1684016;85;21236;-78
2022/10/10 06:57:27;;;;;;;10.73;7.40;;;;;;;12.03;66.48;101393.16;1691946;83;21262;-79
2022/10/10 06:59:53;;;;;;;14.13;11.13;;;;;;;12.12;66.31;101389.02;1710842;83;21233;-73
2022/10/10 07:02:21;;;;;;;16.20;13.10;;;;;;;12.17;65.70;101377.85;1702939;83;21355;-78
2022/10/10 07:17:03;;;;;;;19.83;16.90;;;;;;;12.49;63.77;101385.73;1765125;78;27732;-66
2022/10/10 07:19:45;;;;;;;20.83;18.20;;;;;;;12.47;63.86;101393.20;1741613;80;21058;-67
2022/10/10 07:22:13;;;;;;;23.65;19.67;;;;;;;12.49;63.96;101394.58;1716816;82;21433;-68
2022/10/10 07:24:39;;;;;;;24.50;21.50;;;;;;;12.52;63.97;101394.62;1738598;82;21129;-67
2022/10/10 07:27:06;;;;;;;23.10;20.50;;;;;;;12.52;63.98;101408.02;1745018;82;21213;-66
2022/10/10 07:29:33;;;;;;;19.27;17.27;;;;;;;12.49;63.78;101406.64;1745844;82;21136;-68
2022/10/10 07:31:59;;;;;;;17.17;15.37;;;;;;;12.42;63.69;101398.78;1740373;82;21106;-66
2022/10/10 07:34:26;;;;;;;16.13;13.77;;;;;;;12.38;63.84;101396.86;1729790;82;21295;-67
2022/10/10 07:36:52;;;;;;;13.97;11.63;;;;;;;12.40;64.01;101404.11;1723406;81;21325;-67
2022/10/10 07:39:20;;;;;;;12.63;11.10;;;;;;;12.44;64.01;101397.22;1736469;81;21346;-65
2022/10/10 07:41:49;;;;;;;13.10;11.13;;;;;;;12.50;63.89;101398.88;1746287;82;21206;-67
2022/10/10 07:44:15;;;;;;;12.70;11.40;;;;;;;12.60;63.72;101393.67;1620191;81;10000080;-65
2022/10/10 07:46:42;;;;;;;14.47;11.12;;;;;;;12.69;63.39;101390.00;1623084;82;10000524;-65
2022/10/10 07:49:08;;;;;;;24.17;16.87;;;;;;;12.71;63.03;101402.63;1745467;82;20992;-66
2022/10/10 07:51:37;;;;;;;31.00;19.10;;;;;;;12.67;62.86;101403.66;1743339;81;21084;-67
2022/10/10 07:54:04;;;;;;;34.07;22.10;;;;;;;12.64;62.82;101399.34;1745140;81;21321;-67
2022/10/10 07:56:32;;;;;;;34.70;22.77;;;;;;;12.61;62.78;101389.11;1736659;82;21306;-68
2022/10/10 07:58:59;;;;;;;19.43;13.60;;;;;;;12.62;62.61;101392.06;1736238;82;21164;-65
2022/10/10 08:01:26;;;;;;;17.43;12.43;;;;;;;12.65;62.69;101387.02;1738211;82;21230;-68
2022/10/10 08:03:56;;;;;;;16.40;13.60;;;;;;;12.69;62.32;101388.66;1735917;82;21829;-67
2022/10/10 08:06:22;;;;;;;16.63;14.37;;;;;;;12.72;62.44;101386.02;1743927;80;21113;-67
2022/10/10 08:08:49;;;;;;;18.23;14.13;;;;;;;12.83;62.59;101384.55;1744473;82;21742;-64
2022/10/10 08:11:17;;;;;;;16.67;14.17;;;;;;;12.89;62.53;101386.20;1743340;82;21308;-68
2022/10/10 08:13:44;;;;;;;16.33;11.83;;;;;;;12.94;62.25;101390.82;1741623;82;21300;-68
2022/10/10 08:16:11;;;;;;;13.93;11.60;;;;;;;13.03;62.05;101399.20;1744376;82;21265;-66
2022/10/10 08:18:38;;;;;;;15.43;13.37;;;;;;;13.14;62.09;101398.27;1742677;82;21355;-67
2022/10/10 08:21:09;;;;;;;19.90;14.80;;;;;;;13.24;61.36;101395.71;1741013;82;21447;-65
2022/10/10 08:23:35;;;;;;;18.37;16.13;;;;;;;13.48;60.75;101394.84;1736041;82;21315;-66
2022/10/10 08:26:06;;;;;;;18.33;16.53;;;;;;;13.44;60.75;101383.00;1745033;82;21151;-67
2022/10/10 08:28:34;;;;;;;20.77;17.15;;;;;;;14.12;59.40;101389.94;1743960;82;21307;-67
2022/10/10 08:31:08;;;;;;;20.47;18.27;;;;;;;13.76;59.73;101384.34;1739431;82;21847;-66
2022/10/10 08:33:35;;;;;;;18.13;14.93;;;;;;;13.74;59.75;101394.51;1744493;82;22526;-65
2022/10/10 08:36:15;;;;;;;17.63;14.53;;;;;;;13.78;59.39;101386.75;1745027;82;21339;-66
2022/10/10 08:38:42;;;;;;;17.40;14.80;;;;;;;14.44;57.07;101384.43;1742542;82;21342;-67
2022/10/10 08:41:35;;;;;;;17.67;15.83;;;;;;;14.07;57.30;101395.27;1730896;82;21769;-66
2022/10/10 08:44:27;;;;;;;16.87;14.70;;;;;;;13.91;57.89;101384.16;1724037;82;21343;-65
2022/10/10 08:47:26;;;;;;;22.27;16.12;;;;;;;14.53;56.81;101383.44;1740614;82;21398;-64
2022/10/10 08:50:00;;;;;;;15.17;12.70;;;;;;;14.70;55.94;101391.29;1734012;81;21223;-65
2022/10/10 08:52:44;;;;;;;10.13;8.57;;;;;;;14.72;55.12;101387.27;1714165;82;21808;-70
2022/10/10 08:55:29;;;;;;;11.10;8.70;;;;;;;14.17;55.80;101389.15;1745245;82;21291;-68
2022/10/10 08:58:30;;;;;;;10.70;8.33;;;;;;;14.00;56.65;101394.69;1734580;80;21872;-66
2022/10/10 09:01:12;;;;;;;9.30;6.23;;;;;;;13.99;56.80;101391.73;1730025;81;21305;-65
2022/10/10 09:03:46;;;;;;;7.80;5.37;;;;;;;14.02;56.56;101389.88;1734331;82;21382;-66
2022/10/10 09:06:55;;;;;;;8.27;5.77;;;;;;;14.07;56.55;101390.70;1735807;82;21252;-67
2022/10/10 09:09:41;;;;;;;8.40;5.33;;;;;;;14.71;54.93;101396.96;1717510;83;21209;-68
2022/10/10 09:12:46;;;;;;;8.20;5.67;;;;;;;14.97;54.13;101387.05;1720760;82;21878;-66
2022/10/10 09:15:30;;;;;;;10.07;7.23;;;;;;;15.08;53.25;101383.33;1743908;82;21328;-66
2022/10/10 09:18:29;;;;;;;8.80;6.53;;;;;;;15.15;52.48;101379.03;1734843;81;21279;-66
2022/10/10 09:21:15;;;;;;;14.07;8.77;;;;;;;15.19;52.06;101386.29;1729859;82;21914;-66
2022/10/10 09:24:05;;;;;;;10.50;6.80;;;;;;;15.29;51.73;101387.38;1729599;82;21340;-65
2022/10/10 09:26:37;;;;;;;7.47;5.47;;;;;;;15.31;51.49;101386.59;1733778;82;21445;-65
2022/10/10 09:29:09;;;;;;;7.80;6.05;;;;;;;15.33;51.35;101410.79;1734524;82;21281;-64
2022/10/10 09:31:48;;;;;;;8.87;4.93;;;;;;;15.36;51.09;101391.95;1730986;82;21035;-63
2022/10/10 09:34:22;;;;;;;9.53;6.57;;;;;;;15.38;50.70;101380.39;1735173;82;21400;-63
2022/10/10 09:36:48;;;;;;;7.93;5.90;;;;;;;15.39;50.27;101395.46;1689794;85;21799;-65
2022/10/10 09:39:43;;;;;;;7.03;4.67;;;;;;;15.39;50.27;101395.46;1681774;83;21540;-65
2022/10/10 09:42:12;;;;;;;7.90;4.17;;;;;;;15.42;50.58;101388.20;1676391;83;22717;-65
2022/10/10 09:44:39;;;;;;;6.80;4.10;;;;;;;15.43;49.80;101392.49;1675865;84;22035;-65
2022/10/10 09:47:06;;;;;;;7.17;4.33;;;;;;;15.51;50.00;101367.74;1680366;84;21914;-67
2022/10/10 09:49:33;;;;;;;9.40;6.97;;;;;;;15.62;50.35;101367.99;1679412;84;21387;-68
2022/10/10 09:52:04;;;;;;;6.73;3.83;;;;;;;15.66;49.12;101371.81;1669704;83;21996;-66
2022/10/10 09:54:31;;;;;;;8.25;4.72;;;;;;;15.66;49.12;101371.81;1715682;83;21398;-65
2022/10/10 09:56:58;;;;;;;7.67;5.93;;;;;;;15.70;48.72;101372.87;1686555;84;21053;-63
2022/10/10 09:59:46;;;;;;;8.67;6.10;;;;;;;15.74;48.49;101368.30;1712147;83;21518;-66
2022/10/10 10:02:20;;;;;;;7.40;5.90;;;;;;;15.84;47.91;101362.34;1677796;85;21522;-64
2022/10/10 10:04:48;;;;;;;7.07;5.67;;;;;;;15.84;47.91;101362.34;1702462;84;21590;-65
2022/10/10 10:07:33;;;;;;;7.73;5.97;;;;;;;15.92;47.11;101359.08;1705264;83;21504;-64
2022/10/10 10:10:10;;;;;;;10.20;8.00;;;;;;;15.92;47.11;101359.08;1693834;84;21529;-65
2022/10/10 10:12:43;;;;;;;11.20;9.20;;;;;;;15.97;47.23;101351.55;1678046;84;21695;-65
2022/10/10 10:15:19;;;;;;;12.28;10.72;;;;;;;15.97;47.23;101351.55;1687214;84;21579;-65
2022/10/10 10:17:50;;;;;;;10.60;9.27;;;;;;;16.04;47.34;101351.25;1680025;84;21151;-65
2022/10/10 10:20:33;;;;;;;11.13;9.83;;;;;;;16.17;46.94;101355.52;1674891;84;21543;-66
2022/10/10 10:22:59;;;;;;;10.67;8.87;;;;;;;16.20;46.67;101348.78;1703580;84;21626;-64
2022/10/10 10:25:36;;;;;;;8.30;7.20;;;;;;;16.20;46.67;101348.78;1703034;84;21752;-65
2022/10/10 10:28:15;;;;;;;7.97;6.43;;;;;;;16.39;47.13;101363.81;1692262;84;21693;-64
2022/10/10 10:30:42;;;;;;;6.87;5.23;;;;;;;16.45;45.67;101345.16;1675950;85;21809;-65
2022/10/10 10:33:44;;;;;;;6.87;5.20;;;;;;;16.45;45.67;101345.16;1683080;84;21717;-63
2022/10/10 10:36:37;;;;;;;5.87;3.73;;;;;;;16.48;45.65;101348.65;1702204;84;21672;-66
2022/10/10 10:39:49;;;;;;;5.93;2.70;;;;;;;16.50;44.86;101349.73;1703819;84;21680;-64
2022/10/10 10:42:59;;;;;;;5.45;2.33;;;;;;;16.51;44.81;101345.95;1703832;84;21715;-65
2022/10/10 10:45:50;;;;;;;3.73;1.47;;;;;;;16.51;43.84;101344.59;1675220;85;21953;-63
2022/10/10 10:48:33;;;;;;;5.00;1.20;;;;;;;16.56;43.19;101341.34;1675875;84;21748;-64
2022/10/10 10:51:30;;;;;;;3.17;1.23;;;;;;;16.59;42.92;101344.83;1675298;85;21780;-66
2022/10/10 10:54:11;;;;;;;2.27;0.80;;;;;;;16.63;42.25;101353.17;1670502;84;21760;-65
2022/10/10 10:57:00;;;;;;;5.72;1.17;;;;;;;16.63;42.26;101341.84;1676576;84;21714;-65
2022/10/10 10:59:45;;;;;;;4.33;1.70;;;;;;;16.62;41.95;101359.11;1678184;84;21202;-65
2022/10/10 11:02:48;;;;;;;2.47;1.10;;;;;;;16.64;42.18;101354.23;1683945;84;21829;-65
2022/10/10 11:05:35;;;;;;;2.60;0.90;;;;;;;16.70;41.63;101363.11;1710212;82;21670;-64
2022/10/10 11:08:29;;;;;;;3.97;0.97;;;;;;;16.73;41.61;101343.67;1704170;84;21761;-66
2022/10/10 11:11:31;;;;;;;2.17;0.90;;;;;;;16.72;41.08;101339.92;1698491;84;21716;-64
2022/10/10 11:14:13;;;;;;;;;;;;;;;16.70;41.39;101348.82;1682454;84;22364;-65
2022/10/10 11:17:02;;;;;;;;;;;;;;;16.65;40.88;101354.52;1664732;85;20487;-66
2022/10/10 11:19:36;;;;;;;2.47;0.80;;;;;;;16.07;42.17;101355.55;1683569;84;20187;-65
2022/10/10 11:22:18;;;;;;;2.70;0.97;;;;;;;15.88;42.96;101343.75;1704205;84;21707;-67
2022/10/10 11:25:07;;;;;;;5.17;1.00;;;;;;;15.86;42.82;101351.28;1704219;84;21769;-65
2022/10/10 11:27:52;;;;;;;4.27;1.20;;;;;;;15.84;42.63;101348.08;1704147;84;21264;-64
2022/10/10 11:30:23;;;;;;;2.87;0.90;;;;;;;15.82;42.81;101343.48;1704026;84;21722;-65
2022/10/10 11:33:14;;;;;;;2.87;1.00;;;;;;;15.81;42.18;101345.37;1703846;84;21680;-67
2022/10/10 11:35:59;;;;;;;4.17;1.13;;;;;;;15.84;42.56;101341.34;1703444;84;21745;-66
2022/10/10 11:38:43;;;;;;;4.20;1.30;;;;;;;15.87;43.10;101352.37;1695871;84;21724;-64
2022/10/10 11:41:42;;;;;;;5.60;1.87;;;;;;;15.90;42.38;101354.52;1690139;85;22356;-64
2022/10/10 11:44:18;;;;;;;2.40;1.10;;;;;;;15.86;42.48;101350.77;1690236;85;22288;-65
2022/10/10 11:47:15;;;;;;;4.20;1.40;;;;;;;15.85;42.63;101338.91;1694223;84;21774;-64
2022/10/10 11:49:47;;;;;;;2.87;1.00;;;;;;;15.85;42.63;101338.91;1704123;84;21762;-65
2022/10/10 11:52:33;;;;;;;3.87;1.03;;;;;;;15.91;42.50;101349.94;1704222;84;21774;-65
2022/10/10 11:55:21;;;;;;;3.00;1.40;;;;;;;15.94;42.57;101343.45;1701000;84;21758;-64
2022/10/10 11:58:09;;;;;;;3.40;1.10;;;;;;;15.97;42.63;101350.20;1685148;85;21741;-65
2022/10/10 12:00:47;;;;;;;2.03;0.90;;;;;;;16.00;42.38;101365.81;1685199;85;21662;-65
2022/10/10 12:03:13;;;;;;;3.63;1.10;;;;;;;16.01;42.09;101350.45;1660459;86;21815;-64
2022/10/10 12:05:47;;;;;;;2.73;1.17;;;;;;;15.99;42.29;101358.83;1679997;85;21814;-65